sensor_id;sensor_type;location;lat;lon;timestamp;P1;durP1;ratioP1;P2;durP2;ratioP2
76675;SDS011;69204;55.350;36.906;2023-09-30T00:02:58;43.45;;;18.55;;
76675;SDS011;69204;55.350;36.906;2023-09-30T00:08:00;43.80;;;14.80;;
76675;SDS011;69204;55.350;36.906;2023-09-30T00:13:01;47.60;;;17.27;;
76675;SDS011;69204;55.350;36.906;2023-09-30T00:18:02;30.70;;;15.00;;
76675;SDS011;69204;55.350;36.906;2023-09-30T00:23:03;39.03;;;15.02;;
76675;SDS011;69204;55.350;36.906;2023-09-30T00:28:04;35.40;;;14.57;;
76675;SDS011;69204;55.350;36.906;2023-09-30T00:33:05;35.25;;;14.00;;
76675;SDS011;69204;55.350;36.906;2023-09-30T00:38:06;36.57;;;14.27;;
76675;SDS011;69204;55.350;36.906;2023-09-30T00:43:07;34.28;;;14.40;;
76675;SDS011;69204;55.350;36.906;2023-09-30T00:48:18;37.73;;;14.13;;
76675;SDS011;69204;55.350;36.906;2023-09-30T00:53:19;34.67;;;14.70;;
76675;SDS011;69204;55.350;36.906;2023-09-30T00:58:20;30.63;;;13.33;;
76675;SDS011;69204;55.350;36.906;2023-09-30T01:03:22;31.83;;;13.20;;
76675;SDS011;69204;55.350;36.906;2023-09-30T01:08:23;30.88;;;13.38;;
76675;SDS011;69204;55.350;36.906;2023-09-30T01:13:31;35.50;;;12.87;;
76675;SDS011;69204;55.350;36.906;2023-09-30T01:18:35;43.45;;;14.73;;
76675;SDS011;69204;55.350;36.906;2023-09-30T01:23:37;33.40;;;14.30;;
76675;SDS011;69204;55.350;36.906;2023-09-30T01:28:38;33.05;;;13.95;;
76675;SDS011;69204;55.350;36.906;2023-09-30T01:33:39;30.87;;;12.63;;
76675;SDS011;69204;55.350;36.906;2023-09-30T01:38:40;39.85;;;13.82;;
76675;SDS011;69204;55.350;36.906;2023-09-30T01:43:41;35.70;;;13.93;;
76675;SDS011;69204;55.350;36.906;2023-09-30T01:48:42;35.08;;;14.00;;
76675;SDS011;69204;55.350;36.906;2023-09-30T01:53:42;39.67;;;14.10;;
76675;SDS011;69204;55.350;36.906;2023-09-30T01:58:43;41.38;;;14.55;;
76675;SDS011;69204;55.350;36.906;2023-09-30T02:03:44;30.87;;;13.10;;
76675;SDS011;69204;55.350;36.906;2023-09-30T02:08:45;32.75;;;12.50;;
76675;SDS011;69204;55.350;36.906;2023-09-30T02:13:46;30.37;;;11.60;;
76675;SDS011;69204;55.350;36.906;2023-09-30T02:18:47;32.30;;;12.75;;
76675;SDS011;69204;55.350;36.906;2023-09-30T02:23:52;34.30;;;13.10;;
76675;SDS011;69204;55.350;36.906;2023-09-30T02:28:55;37.13;;;14.93;;
76675;SDS011;69204;55.350;36.906;2023-09-30T02:33:57;34.42;;;13.55;;
76675;SDS011;69204;55.350;36.906;2023-09-30T02:38:58;50.22;;;13.20;;
76675;SDS011;69204;55.350;36.906;2023-09-30T02:43:59;41.38;;;13.43;;
76675;SDS011;69204;55.350;36.906;2023-09-30T02:49:01;30.97;;;12.07;;
76675;SDS011;69204;55.350;36.906;2023-09-30T02:54:02;37.17;;;14.27;;
76675;SDS011;69204;55.350;36.906;2023-09-30T02:59:03;33.33;;;12.43;;
76675;SDS011;69204;55.350;36.906;2023-09-30T03:04:04;37.67;;;13.38;;
76675;SDS011;69204;55.350;36.906;2023-09-30T03:09:07;30.97;;;13.93;;
76675;SDS011;69204;55.350;36.906;2023-09-30T03:14:10;39.75;;;14.43;;
76675;SDS011;69204;55.350;36.906;2023-09-30T03:19:11;40.17;;;15.38;;
76675;SDS011;69204;55.350;36.906;2023-09-30T03:24:13;34.58;;;14.07;;
76675;SDS011;69204;55.350;36.906;2023-09-30T03:29:13;31.45;;;12.98;;
76675;SDS011;69204;55.350;36.906;2023-09-30T03:34:14;39.58;;;12.48;;
76675;SDS011;69204;55.350;36.906;2023-09-30T03:39:16;35.65;;;13.63;;
76675;SDS011;69204;55.350;36.906;2023-09-30T03:44:26;29.42;;;12.02;;
76675;SDS011;69204;55.350;36.906;2023-09-30T03:49:28;35.20;;;14.38;;
76675;SDS011;69204;55.350;36.906;2023-09-30T03:54:29;38.55;;;14.82;;
76675;SDS011;69204;55.350;36.906;2023-09-30T03:59:30;38.47;;;14.27;;
76675;SDS011;69204;55.350;36.906;2023-09-30T04:04:31;38.53;;;15.77;;
76675;SDS011;69204;55.350;36.906;2023-09-30T04:09:32;40.65;;;15.63;;
76675;SDS011;69204;55.350;36.906;2023-09-30T04:14:33;33.50;;;16.20;;
76675;SDS011;69204;55.350;36.906;2023-09-30T04:19:34;39.20;;;18.38;;
76675;SDS011;69204;55.350;36.906;2023-09-30T04:24:35;34.67;;;15.10;;
76675;SDS011;69204;55.350;36.906;2023-09-30T04:29:35;28.48;;;14.90;;
76675;SDS011;69204;55.350;36.906;2023-09-30T04:34:36;35.63;;;14.80;;
76675;SDS011;69204;55.350;36.906;2023-09-30T04:39:37;35.88;;;16.80;;
76675;SDS011;69204;55.350;36.906;2023-09-30T04:44:39;46.47;;;21.10;;
76675;SDS011;69204;55.350;36.906;2023-09-30T04:49:40;35.40;;;18.40;;
76675;SDS011;69204;55.350;36.906;2023-09-30T04:54:43;41.20;;;19.58;;
76675;SDS011;69204;55.350;36.906;2023-09-30T04:59:46;41.17;;;19.80;;
76675;SDS011;69204;55.350;36.906;2023-09-30T05:04:47;41.55;;;21.30;;
76675;SDS011;69204;55.350;36.906;2023-09-30T05:09:48;53.70;;;25.97;;
76675;SDS011;69204;55.350;36.906;2023-09-30T05:14:49;51.53;;;23.98;;
76675;SDS011;69204;55.350;36.906;2023-09-30T05:19:49;43.27;;;21.70;;
76675;SDS011;69204;55.350;36.906;2023-09-30T05:24:51;38.90;;;18.20;;
76675;SDS011;69204;55.350;36.906;2023-09-30T05:29:52;31.00;;;14.60;;
76675;SDS011;69204;55.350;36.906;2023-09-30T05:34:53;26.48;;;14.50;;
76675;SDS011;69204;55.350;36.906;2023-09-30T05:39:54;25.17;;;15.37;;
76675;SDS011;69204;55.350;36.906;2023-09-30T05:44:55;28.90;;;15.60;;
76675;SDS011;69204;55.350;36.906;2023-09-30T05:49:56;23.45;;;13.45;;
76675;SDS011;69204;55.350;36.906;2023-09-30T05:54:57;22.90;;;12.50;;
76675;SDS011;69204;55.350;36.906;2023-09-30T06:00:02;24.80;;;12.95;;
76675;SDS011;69204;55.350;36.906;2023-09-30T06:05:24;24.23;;;11.93;;
76675;SDS011;69204;55.350;36.906;2023-09-30T06:10:31;20.35;;;11.50;;
76675;SDS011;69204;55.350;36.906;2023-09-30T06:15:32;20.50;;;11.67;;
76675;SDS011;69204;55.350;36.906;2023-09-30T06:20:33;20.05;;;11.10;;
76675;SDS011;69204;55.350;36.906;2023-09-30T06:25:34;23.02;;;9.50;;
76675;SDS011;69204;55.350;36.906;2023-09-30T06:30:36;19.53;;;9.67;;
76675;SDS011;69204;55.350;36.906;2023-09-30T06:35:37;21.73;;;11.05;;
76675;SDS011;69204;55.350;36.906;2023-09-30T06:40:50;21.23;;;10.57;;
76675;SDS011;69204;55.350;36.906;2023-09-30T06:45:51;21.17;;;10.10;;
76675;SDS011;69204;55.350;36.906;2023-09-30T06:50:52;18.77;;;9.83;;
76675;SDS011;69204;55.350;36.906;2023-09-30T06:55:53;23.85;;;12.32;;
76675;SDS011;69204;55.350;36.906;2023-09-30T07:00:54;30.70;;;16.10;;
76675;SDS011;69204;55.350;36.906;2023-09-30T07:05:55;19.88;;;9.75;;
76675;SDS011;69204;55.350;36.906;2023-09-30T07:10:57;18.48;;;9.18;;
76675;SDS011;69204;55.350;36.906;2023-09-30T07:15:58;15.63;;;8.20;;
76675;SDS011;69204;55.350;36.906;2023-09-30T07:20:59;17.40;;;8.93;;
76675;SDS011;69204;55.350;36.906;2023-09-30T07:26:02;16.53;;;8.37;;
76675;SDS011;69204;55.350;36.906;2023-09-30T07:31:03;22.10;;;8.60;;
76675;SDS011;69204;55.350;36.906;2023-09-30T07:36:04;16.80;;;8.60;;
76675;SDS011;69204;55.350;36.906;2023-09-30T07:41:05;19.13;;;8.60;;
76675;SDS011;69204;55.350;36.906;2023-09-30T07:49:55;18.33;;;9.50;;
76675;SDS011;69204;55.350;36.906;2023-09-30T07:54:56;19.52;;;9.32;;
76675;SDS011;69204;55.350;36.906;2023-09-30T07:59:57;18.70;;;9.37;;
76675;SDS011;69204;55.350;36.906;2023-09-30T08:04:58;19.42;;;8.75;;
76675;SDS011;69204;55.350;36.906;2023-09-30T08:10:00;17.75;;;8.73;;
76675;SDS011;69204;55.350;36.906;2023-09-30T08:15:05;19.73;;;9.20;;
76675;SDS011;69204;55.350;36.906;2023-09-30T08:20:07;21.10;;;9.52;;
76675;SDS011;69204;55.350;36.906;2023-09-30T08:25:12;14.87;;;8.67;;
76675;SDS011;69204;55.350;36.906;2023-09-30T08:30:13;21.58;;;8.70;;
76675;SDS011;69204;55.350;36.906;2023-09-30T08:35:14;21.98;;;9.38;;
76675;SDS011;69204;55.350;36.906;2023-09-30T08:40:19;17.60;;;8.90;;
76675;SDS011;69204;55.350;36.906;2023-09-30T08:45:21;132.45;;;73.47;;
76675;SDS011;69204;55.350;36.906;2023-09-30T08:50:22;23.47;;;11.67;;
76675;SDS011;69204;55.350;36.906;2023-09-30T08:55:23;29.10;;;14.27;;
76675;SDS011;69204;55.350;36.906;2023-09-30T09:00:28;193.43;;;87.43;;
76675;SDS011;69204;55.350;36.906;2023-09-30T09:05:29;75.87;;;22.13;;
76675;SDS011;69204;55.350;36.906;2023-09-30T09:10:30;102.30;;;34.67;;
76675;SDS011;69204;55.350;36.906;2023-09-30T09:15:31;38.83;;;19.90;;
76675;SDS011;69204;55.350;36.906;2023-09-30T09:20:32;26.70;;;13.25;;
76675;SDS011;69204;55.350;36.906;2023-09-30T09:25:38;28.65;;;14.40;;
76675;SDS011;69204;55.350;36.906;2023-09-30T09:30:39;25.73;;;13.00;;
76675;SDS011;69204;55.350;36.906;2023-09-30T09:35:42;39.40;;;19.27;;
76675;SDS011;69204;55.350;36.906;2023-09-30T09:40:51;68.93;;;23.97;;
76675;SDS011;69204;55.350;36.906;2023-09-30T09:45:59;33.55;;;14.68;;
76675;SDS011;69204;55.350;36.906;2023-09-30T09:51:04;21.00;;;9.30;;
76675;SDS011;69204;55.350;36.906;2023-09-30T09:56:13;198.43;;;116.03;;
76675;SDS011;69204;55.350;36.906;2023-09-30T10:01:18;115.13;;;58.08;;
76675;SDS011;69204;55.350;36.906;2023-09-30T10:06:25;17.43;;;8.70;;
76675;SDS011;69204;55.350;36.906;2023-09-30T10:11:27;27.00;;;13.57;;
76675;SDS011;69204;55.350;36.906;2023-09-30T10:21:41;20.87;;;9.27;;
76675;SDS011;69204;55.350;36.906;2023-09-30T10:43:32;15.30;;;9.32;;
76675;SDS011;69204;55.350;36.906;2023-09-30T10:48:37;30.53;;;16.10;;
76675;SDS011;69204;55.350;36.906;2023-09-30T10:53:46;23.70;;;11.98;;
76675;SDS011;69204;55.350;36.906;2023-09-30T10:59:00;16.43;;;8.90;;
76675;SDS011;69204;55.350;36.906;2023-09-30T11:04:03;17.67;;;11.23;;
76675;SDS011;69204;55.350;36.906;2023-09-30T11:09:06;15.88;;;7.75;;
76675;SDS011;69204;55.350;36.906;2023-09-30T11:19:47;16.90;;;8.38;;
76675;SDS011;69204;55.350;36.906;2023-09-30T11:24:49;16.87;;;8.10;;
76675;SDS011;69204;55.350;36.906;2023-09-30T11:29:50;29.02;;;17.55;;
76675;SDS011;69204;55.350;36.906;2023-09-30T11:34:52;16.77;;;7.82;;
76675;SDS011;69204;55.350;36.906;2023-09-30T11:40:09;26.47;;;10.87;;
76675;SDS011;69204;55.350;36.906;2023-09-30T11:45:21;38.35;;;19.38;;
76675;SDS011;69204;55.350;36.906;2023-09-30T11:50:44;26.57;;;12.30;;
76675;SDS011;69204;55.350;36.906;2023-09-30T11:55:53;16.08;;;9.40;;
76675;SDS011;69204;55.350;36.906;2023-09-30T12:00:59;20.85;;;8.85;;
76675;SDS011;69204;55.350;36.906;2023-09-30T12:06:00;17.10;;;7.77;;
76675;SDS011;69204;55.350;36.906;2023-09-30T12:11:02;66.93;;;39.00;;
76675;SDS011;69204;55.350;36.906;2023-09-30T12:16:16;15.03;;;8.20;;
76675;SDS011;69204;55.350;36.906;2023-09-30T12:21:21;10.45;;;7.00;;
76675;SDS011;69204;55.350;36.906;2023-09-30T12:26:23;12.15;;;8.00;;
76675;SDS011;69204;55.350;36.906;2023-09-30T12:31:24;15.93;;;8.67;;
76675;SDS011;69204;55.350;36.906;2023-09-30T12:36:26;16.48;;;8.95;;
76675;SDS011;69204;55.350;36.906;2023-09-30T12:41:28;28.47;;;14.57;;
76675;SDS011;69204;55.350;36.906;2023-09-30T12:46:33;193.35;;;101.70;;
76675;SDS011;69204;55.350;36.906;2023-09-30T12:51:39;33.50;;;16.70;;
76675;SDS011;69204;55.350;36.906;2023-09-30T12:56:41;27.20;;;15.77;;
76675;SDS011;69204;55.350;36.906;2023-09-30T13:01:45;27.92;;;15.63;;
76675;SDS011;69204;55.350;36.906;2023-09-30T13:06:48;64.80;;;18.60;;
76675;SDS011;69204;55.350;36.906;2023-09-30T13:11:51;29.40;;;11.05;;
76675;SDS011;69204;55.350;36.906;2023-09-30T13:16:54;24.45;;;10.65;;
76675;SDS011;69204;55.350;36.906;2023-09-30T13:21:55;49.63;;;32.47;;
76675;SDS011;69204;55.350;36.906;2023-09-30T13:27:00;43.42;;;20.55;;
76675;SDS011;69204;55.350;36.906;2023-09-30T13:32:02;27.40;;;12.80;;
76675;SDS011;69204;55.350;36.906;2023-09-30T13:37:04;15.23;;;8.43;;
76675;SDS011;69204;55.350;36.906;2023-09-30T13:42:07;21.25;;;10.85;;
76675;SDS011;69204;55.350;36.906;2023-09-30T13:47:09;25.17;;;12.50;;
76675;SDS011;69204;55.350;36.906;2023-09-30T13:52:12;16.63;;;9.52;;
76675;SDS011;69204;55.350;36.906;2023-09-30T13:57:16;47.50;;;21.83;;
76675;SDS011;69204;55.350;36.906;2023-09-30T14:02:26;79.22;;;24.05;;
76675;SDS011;69204;55.350;36.906;2023-09-30T14:07:28;41.30;;;14.23;;
76675;SDS011;69204;55.350;36.906;2023-09-30T14:12:32;60.70;;;20.73;;
76675;SDS011;69204;55.350;36.906;2023-09-30T14:17:39;71.60;;;22.50;;
76675;SDS011;69204;55.350;36.906;2023-09-30T14:22:42;94.10;;;24.13;;
76675;SDS011;69204;55.350;36.906;2023-09-30T14:27:49;119.20;;;29.33;;
76675;SDS011;69204;55.350;36.906;2023-09-30T14:32:52;89.68;;;26.90;;
76675;SDS011;69204;55.350;36.906;2023-09-30T14:37:57;62.47;;;22.47;;
76675;SDS011;69204;55.350;36.906;2023-09-30T14:42:58;119.93;;;34.20;;
76675;SDS011;69204;55.350;36.906;2023-09-30T14:48:02;36.07;;;15.87;;
76675;SDS011;69204;55.350;36.906;2023-09-30T14:53:10;38.28;;;18.85;;
76675;SDS011;69204;55.350;36.906;2023-09-30T14:58:12;239.02;;;117.95;;
76675;SDS011;69204;55.350;36.906;2023-09-30T15:03:15;100.53;;;49.53;;
76675;SDS011;69204;55.350;36.906;2023-09-30T15:08:17;126.30;;;51.70;;
76675;SDS011;69204;55.350;36.906;2023-09-30T15:13:19;129.47;;;62.03;;
76675;SDS011;69204;55.350;36.906;2023-09-30T15:18:20;192.00;;;86.07;;
76675;SDS011;69204;55.350;36.906;2023-09-30T15:23:21;259.75;;;118.45;;
76675;SDS011;69204;55.350;36.906;2023-09-30T15:28:23;159.17;;;74.77;;
76675;SDS011;69204;55.350;36.906;2023-09-30T15:33:24;473.58;;;348.15;;
76675;SDS011;69204;55.350;36.906;2023-09-30T15:38:28;586.47;;;365.03;;
76675;SDS011;69204;55.350;36.906;2023-09-30T15:43:30;318.13;;;166.93;;
76675;SDS011;69204;55.350;36.906;2023-09-30T15:48:33;394.02;;;178.25;;
76675;SDS011;69204;55.350;36.906;2023-09-30T15:53:39;251.80;;;122.60;;
76675;SDS011;69204;55.350;36.906;2023-09-30T15:58:40;315.17;;;144.93;;
76675;SDS011;69204;55.350;36.906;2023-09-30T16:03:42;492.77;;;236.37;;
76675;SDS011;69204;55.350;36.906;2023-09-30T16:08:43;403.27;;;182.20;;
76675;SDS011;69204;55.350;36.906;2023-09-30T16:13:45;408.63;;;223.40;;
76675;SDS011;69204;55.350;36.906;2023-09-30T16:18:48;436.37;;;226.57;;
76675;SDS011;69204;55.350;36.906;2023-09-30T16:23:51;327.63;;;151.93;;
76675;SDS011;69204;55.350;36.906;2023-09-30T16:29:02;289.07;;;126.53;;
76675;SDS011;69204;55.350;36.906;2023-09-30T16:34:04;254.35;;;107.72;;
76675;SDS011;69204;55.350;36.906;2023-09-30T16:39:08;635.33;;;302.10;;
76675;SDS011;69204;55.350;36.906;2023-09-30T16:44:10;310.10;;;148.07;;
76675;SDS011;69204;55.350;36.906;2023-09-30T16:49:11;225.73;;;111.82;;
76675;SDS011;69204;55.350;36.906;2023-09-30T16:54:13;508.40;;;302.03;;
76675;SDS011;69204;55.350;36.906;2023-09-30T16:59:18;367.60;;;143.52;;
76675;SDS011;69204;55.350;36.906;2023-09-30T17:04:20;137.65;;;55.88;;
76675;SDS011;69204;55.350;36.906;2023-09-30T17:09:23;114.10;;;45.80;;
76675;SDS011;69204;55.350;36.906;2023-09-30T17:14:25;60.45;;;26.88;;
76675;SDS011;69204;55.350;36.906;2023-09-30T17:19:27;58.03;;;23.33;;
76675;SDS011;69204;55.350;36.906;2023-09-30T17:24:33;59.30;;;25.35;;
76675;SDS011;69204;55.350;36.906;2023-09-30T17:29:36;86.60;;;33.58;;
76675;SDS011;69204;55.350;36.906;2023-09-30T17:34:40;107.57;;;54.77;;
76675;SDS011;69204;55.350;36.906;2023-09-30T17:39:41;116.20;;;56.63;;
76675;SDS011;69204;55.350;36.906;2023-09-30T17:44:46;73.23;;;36.43;;
76675;SDS011;69204;55.350;36.906;2023-09-30T17:49:48;52.20;;;25.10;;
76675;SDS011;69204;55.350;36.906;2023-09-30T17:54:52;99.38;;;32.00;;
76675;SDS011;69204;55.350;36.906;2023-09-30T17:59:53;44.43;;;22.10;;
76675;SDS011;69204;55.350;36.906;2023-09-30T18:04:57;73.78;;;31.83;;
76675;SDS011;69204;55.350;36.906;2023-09-30T18:09:59;80.17;;;30.10;;
76675;SDS011;69204;55.350;36.906;2023-09-30T18:15:01;79.60;;;30.40;;
76675;SDS011;69204;55.350;36.906;2023-09-30T18:20:08;72.07;;;27.30;;
76675;SDS011;69204;55.350;36.906;2023-09-30T18:25:11;83.97;;;31.03;;
76675;SDS011;69204;55.350;36.906;2023-09-30T18:30:14;38.65;;;17.10;;
76675;SDS011;69204;55.350;36.906;2023-09-30T18:35:19;50.93;;;25.37;;
76675;SDS011;69204;55.350;36.906;2023-09-30T18:40:23;30.38;;;14.88;;
76675;SDS011;69204;55.350;36.906;2023-09-30T18:45:25;27.67;;;14.05;;
76675;SDS011;69204;55.350;36.906;2023-09-30T18:50:27;161.80;;;74.37;;
76675;SDS011;69204;55.350;36.906;2023-09-30T18:55:33;63.97;;;30.10;;
76675;SDS011;69204;55.350;36.906;2023-09-30T19:00:40;43.60;;;20.90;;
76675;SDS011;69204;55.350;36.906;2023-09-30T19:05:44;45.80;;;20.08;;
76675;SDS011;69204;55.350;36.906;2023-09-30T19:10:54;37.05;;;17.55;;
76675;SDS011;69204;55.350;36.906;2023-09-30T19:15:55;119.20;;;35.40;;
76675;SDS011;69204;55.350;36.906;2023-09-30T19:20:57;78.53;;;28.33;;
76675;SDS011;69204;55.350;36.906;2023-09-30T19:25:58;44.10;;;18.07;;
76675;SDS011;69204;55.350;36.906;2023-09-30T19:30:59;38.80;;;18.15;;
76675;SDS011;69204;55.350;36.906;2023-09-30T19:36:05;38.10;;;17.30;;
76675;SDS011;69204;55.350;36.906;2023-09-30T19:41:15;29.43;;;14.73;;
76675;SDS011;69204;55.350;36.906;2023-09-30T19:46:18;39.38;;;17.52;;
76675;SDS011;69204;55.350;36.906;2023-09-30T19:51:22;43.93;;;21.80;;
76675;SDS011;69204;55.350;36.906;2023-09-30T19:56:24;47.92;;;20.52;;
76675;SDS011;69204;55.350;36.906;2023-09-30T20:01:25;23.27;;;13.88;;
76675;SDS011;69204;55.350;36.906;2023-09-30T20:06:26;27.73;;;15.10;;
76675;SDS011;69204;55.350;36.906;2023-09-30T20:11:28;22.20;;;14.05;;
76675;SDS011;69204;55.350;36.906;2023-09-30T20:16:29;26.60;;;13.33;;
76675;SDS011;69204;55.350;36.906;2023-09-30T20:21:30;26.17;;;13.98;;
76675;SDS011;69204;55.350;36.906;2023-09-30T20:26:33;23.67;;;12.95;;
76675;SDS011;69204;55.350;36.906;2023-09-30T20:31:35;24.13;;;12.85;;
76675;SDS011;69204;55.350;36.906;2023-09-30T20:36:37;24.20;;;12.52;;
76675;SDS011;69204;55.350;36.906;2023-09-30T20:41:38;27.70;;;13.67;;
76675;SDS011;69204;55.350;36.906;2023-09-30T20:46:39;22.25;;;13.13;;
76675;SDS011;69204;55.350;36.906;2023-09-30T20:51:40;25.73;;;13.50;;
76675;SDS011;69204;55.350;36.906;2023-09-30T20:56:42;21.47;;;12.43;;
76675;SDS011;69204;55.350;36.906;2023-09-30T21:01:46;28.63;;;13.68;;
76675;SDS011;69204;55.350;36.906;2023-09-30T21:06:48;28.37;;;13.20;;
76675;SDS011;69204;55.350;36.906;2023-09-30T21:11:49;21.75;;;12.20;;
76675;SDS011;69204;55.350;36.906;2023-09-30T21:16:50;22.53;;;12.13;;
76675;SDS011;69204;55.350;36.906;2023-09-30T21:21:51;21.67;;;11.75;;
76675;SDS011;69204;55.350;36.906;2023-09-30T21:26:52;23.23;;;12.13;;
76675;SDS011;69204;55.350;36.906;2023-09-30T21:31:52;23.63;;;12.40;;
76675;SDS011;69204;55.350;36.906;2023-09-30T21:36:53;24.27;;;12.52;;
76675;SDS011;69204;55.350;36.906;2023-09-30T21:41:54;20.23;;;12.43;;
76675;SDS011;69204;55.350;36.906;2023-09-30T21:46:55;21.25;;;12.63;;
76675;SDS011;69204;55.350;36.906;2023-09-30T21:51:56;21.27;;;11.33;;
76675;SDS011;69204;55.350;36.906;2023-09-30T21:56:57;22.40;;;11.77;;
76675;SDS011;69204;55.350;36.906;2023-09-30T22:01:58;23.90;;;12.20;;
76675;SDS011;69204;55.350;36.906;2023-09-30T22:07:00;24.00;;;11.87;;
76675;SDS011;69204;55.350;36.906;2023-09-30T22:12:03;19.52;;;11.38;;
76675;SDS011;69204;55.350;36.906;2023-09-30T22:17:04;25.80;;;11.70;;
76675;SDS011;69204;55.350;36.906;2023-09-30T22:22:05;21.40;;;11.77;;
76675;SDS011;69204;55.350;36.906;2023-09-30T22:27:12;21.20;;;12.10;;
76675;SDS011;69204;55.350;36.906;2023-09-30T22:32:13;19.40;;;10.77;;
76675;SDS011;69204;55.350;36.906;2023-09-30T22:37:14;19.65;;;10.57;;
76675;SDS011;69204;55.350;36.906;2023-09-30T22:42:16;18.52;;;10.93;;
76675;SDS011;69204;55.350;36.906;2023-09-30T22:47:18;25.03;;;11.20;;
76675;SDS011;69204;55.350;36.906;2023-09-30T22:52:19;18.20;;;11.23;;
76675;SDS011;69204;55.350;36.906;2023-09-30T22:57:20;19.50;;;10.73;;
76675;SDS011;69204;55.350;36.906;2023-09-30T23:02:21;20.00;;;10.45;;
76675;SDS011;69204;55.350;36.906;2023-09-30T23:07:22;19.83;;;10.70;;
76675;SDS011;69204;55.350;36.906;2023-09-30T23:12:23;19.50;;;11.13;;
76675;SDS011;69204;55.350;36.906;2023-09-30T23:17:24;25.13;;;10.73;;
76675;SDS011;69204;55.350;36.906;2023-09-30T23:22:26;16.10;;;10.10;;
76675;SDS011;69204;55.350;36.906;2023-09-30T23:27:27;19.88;;;10.48;;
76675;SDS011;69204;55.350;36.906;2023-09-30T23:32:30;18.77;;;10.57;;
76675;SDS011;69204;55.350;36.906;2023-09-30T23:37:30;23.50;;;10.38;;
76675;SDS011;69204;55.350;36.906;2023-09-30T23:42:31;23.07;;;10.70;;
76675;SDS011;69204;55.350;36.906;2023-09-30T23:47:32;18.98;;;10.10;;
76675;SDS011;69204;55.350;36.906;2023-09-30T23:52:34;20.87;;;10.43;;
76675;SDS011;69204;55.350;36.906;2023-09-30T23:57:36;21.15;;;9.93;;
